sensor_id;sensor_type;location;lat;lon;timestamp;P1;durP1;ratioP1;P2;durP2;ratioP2
40339;SDS011;26044;50.864;20.658;2023-04-30T00:00:43;58.78;;;36.35;;
40339;SDS011;26044;50.864;20.658;2023-04-30T00:03:10;59.45;;;34.47;;
40339;SDS011;26044;50.864;20.658;2023-04-30T00:05:39;62.22;;;36.58;;
40339;SDS011;26044;50.864;20.658;2023-04-30T00:08:06;61.95;;;35.63;;
40339;SDS011;26044;50.864;20.658;2023-04-30T00:10:32;62.20;;;36.10;;
40339;SDS011;26044;50.864;20.658;2023-04-30T00:13:00;60.72;;;35.05;;
40339;SDS011;26044;50.864;20.658;2023-04-30T00:15:26;64.40;;;37.30;;
40339;SDS011;26044;50.864;20.658;2023-04-30T00:17:53;59.80;;;34.75;;
40339;SDS011;26044;50.864;20.658;2023-04-30T00:20:20;59.35;;;35.20;;
40339;SDS011;26044;50.864;20.658;2023-04-30T00:22:47;65.47;;;37.92;;
40339;SDS011;26044;50.864;20.658;2023-04-30T00:25:13;63.80;;;35.00;;
40339;SDS011;26044;50.864;20.658;2023-04-30T00:27:41;59.63;;;34.03;;
40339;SDS011;26044;50.864;20.658;2023-04-30T00:30:08;58.17;;;34.72;;
40339;SDS011;26044;50.864;20.658;2023-04-30T00:32:35;59.90;;;34.67;;
40339;SDS011;26044;50.864;20.658;2023-04-30T00:35:02;58.17;;;35.67;;
40339;SDS011;26044;50.864;20.658;2023-04-30T00:37:29;62.53;;;34.90;;
40339;SDS011;26044;50.864;20.658;2023-04-30T00:39:56;65.28;;;35.58;;
40339;SDS011;26044;50.864;20.658;2023-04-30T00:42:23;66.45;;;34.97;;
40339;SDS011;26044;50.864;20.658;2023-04-30T00:44:49;65.63;;;36.35;;
40339;SDS011;26044;50.864;20.658;2023-04-30T00:47:16;62.25;;;35.13;;
40339;SDS011;26044;50.864;20.658;2023-04-30T00:49:43;62.97;;;36.28;;
40339;SDS011;26044;50.864;20.658;2023-04-30T00:52:10;61.45;;;34.55;;
40339;SDS011;26044;50.864;20.658;2023-04-30T00:54:38;63.83;;;37.22;;
40339;SDS011;26044;50.864;20.658;2023-04-30T00:57:05;65.22;;;36.13;;
40339;SDS011;26044;50.864;20.658;2023-04-30T00:59:34;67.20;;;36.38;;
40339;SDS011;26044;50.864;20.658;2023-04-30T01:02:02;62.60;;;36.03;;
40339;SDS011;26044;50.864;20.658;2023-04-30T01:04:30;62.55;;;37.55;;
40339;SDS011;26044;50.864;20.658;2023-04-30T01:06:59;60.03;;;34.80;;
40339;SDS011;26044;50.864;20.658;2023-04-30T01:09:27;55.45;;;33.47;;
40339;SDS011;26044;50.864;20.658;2023-04-30T01:17:24;47.75;;;28.83;;
40339;SDS011;26044;50.864;20.658;2023-04-30T01:20:17;48.90;;;27.98;;
40339;SDS011;26044;50.864;20.658;2023-04-30T01:22:45;49.10;;;28.17;;
40339;SDS011;26044;50.864;20.658;2023-04-30T01:28:34;49.60;;;27.63;;
40339;SDS011;26044;50.864;20.658;2023-04-30T01:31:02;44.55;;;25.40;;
40339;SDS011;26044;50.864;20.658;2023-04-30T01:33:29;45.97;;;27.17;;
40339;SDS011;26044;50.864;20.658;2023-04-30T01:41:49;51.50;;;27.90;;
40339;SDS011;26044;50.864;20.658;2023-04-30T01:44:43;52.65;;;28.02;;
40339;SDS011;26044;50.864;20.658;2023-04-30T01:47:39;49.45;;;28.48;;
40339;SDS011;26044;50.864;20.658;2023-04-30T01:53:08;48.90;;;28.60;;
40339;SDS011;26044;50.864;20.658;2023-04-30T01:55:42;49.20;;;27.67;;
40339;SDS011;26044;50.864;20.658;2023-04-30T01:58:30;48.38;;;27.20;;
40339;SDS011;26044;50.864;20.658;2023-04-30T02:00:58;47.97;;;27.83;;
40339;SDS011;26044;50.864;20.658;2023-04-30T02:03:25;52.30;;;28.33;;
40339;SDS011;26044;50.864;20.658;2023-04-30T02:05:52;47.72;;;28.17;;
40339;SDS011;26044;50.864;20.658;2023-04-30T02:08:21;47.80;;;28.83;;
40339;SDS011;26044;50.864;20.658;2023-04-30T02:10:48;48.60;;;28.02;;
40339;SDS011;26044;50.864;20.658;2023-04-30T02:13:14;53.13;;;28.67;;
40339;SDS011;26044;50.864;20.658;2023-04-30T02:15:42;52.13;;;29.77;;
40339;SDS011;26044;50.864;20.658;2023-04-30T02:18:09;49.65;;;28.83;;
40339;SDS011;26044;50.864;20.658;2023-04-30T02:20:36;48.22;;;28.40;;
40339;SDS011;26044;50.864;20.658;2023-04-30T02:23:04;47.70;;;28.08;;
40339;SDS011;26044;50.864;20.658;2023-04-30T02:25:31;48.25;;;27.73;;
40339;SDS011;26044;50.864;20.658;2023-04-30T02:28:03;49.53;;;28.77;;
40339;SDS011;26044;50.864;20.658;2023-04-30T02:30:30;50.72;;;28.95;;
40339;SDS011;26044;50.864;20.658;2023-04-30T02:32:57;50.53;;;28.17;;
40339;SDS011;26044;50.864;20.658;2023-04-30T02:35:23;49.05;;;28.55;;
40339;SDS011;26044;50.864;20.658;2023-04-30T02:37:50;47.92;;;26.73;;
40339;SDS011;26044;50.864;20.658;2023-04-30T02:40:17;44.85;;;27.65;;
40339;SDS011;26044;50.864;20.658;2023-04-30T02:42:44;48.13;;;26.40;;
40339;SDS011;26044;50.864;20.658;2023-04-30T02:45:10;46.67;;;28.52;;
40339;SDS011;26044;50.864;20.658;2023-04-30T02:47:37;47.95;;;27.20;;
40339;SDS011;26044;50.864;20.658;2023-04-30T02:50:04;46.83;;;27.52;;
40339;SDS011;26044;50.864;20.658;2023-04-30T02:52:32;47.17;;;25.60;;
40339;SDS011;26044;50.864;20.658;2023-04-30T02:54:59;48.45;;;26.65;;
40339;SDS011;26044;50.864;20.658;2023-04-30T02:57:26;52.42;;;27.88;;
40339;SDS011;26044;50.864;20.658;2023-04-30T02:59:52;49.88;;;27.92;;
40339;SDS011;26044;50.864;20.658;2023-04-30T03:02:20;51.58;;;28.15;;
40339;SDS011;26044;50.864;20.658;2023-04-30T03:04:48;52.70;;;29.08;;
40339;SDS011;26044;50.864;20.658;2023-04-30T03:07:15;52.05;;;29.25;;
40339;SDS011;26044;50.864;20.658;2023-04-30T03:09:42;53.72;;;28.55;;
40339;SDS011;26044;50.864;20.658;2023-04-30T03:12:09;58.67;;;27.98;;
40339;SDS011;26044;50.864;20.658;2023-04-30T03:14:36;56.53;;;27.45;;
40339;SDS011;26044;50.864;20.658;2023-04-30T03:17:03;54.60;;;28.08;;
40339;SDS011;26044;50.864;20.658;2023-04-30T03:19:30;51.75;;;28.80;;
40339;SDS011;26044;50.864;20.658;2023-04-30T03:21:57;52.10;;;29.67;;
40339;SDS011;26044;50.864;20.658;2023-04-30T03:24:24;55.70;;;31.00;;
40339;SDS011;26044;50.864;20.658;2023-04-30T03:26:50;55.90;;;30.50;;
40339;SDS011;26044;50.864;20.658;2023-04-30T03:29:17;52.65;;;28.98;;
40339;SDS011;26044;50.864;20.658;2023-04-30T03:31:44;51.97;;;28.42;;
40339;SDS011;26044;50.864;20.658;2023-04-30T03:34:11;58.20;;;29.25;;
40339;SDS011;26044;50.864;20.658;2023-04-30T03:36:38;62.47;;;30.52;;
40339;SDS011;26044;50.864;20.658;2023-04-30T03:39:04;59.60;;;30.27;;
40339;SDS011;26044;50.864;20.658;2023-04-30T03:41:32;61.72;;;30.88;;
40339;SDS011;26044;50.864;20.658;2023-04-30T03:43:59;53.28;;;29.13;;
40339;SDS011;26044;50.864;20.658;2023-04-30T03:46:26;61.65;;;30.42;;
40339;SDS011;26044;50.864;20.658;2023-04-30T03:48:53;59.78;;;30.65;;
40339;SDS011;26044;50.864;20.658;2023-04-30T03:51:20;58.03;;;30.33;;
40339;SDS011;26044;50.864;20.658;2023-04-30T03:53:47;59.20;;;30.00;;
40339;SDS011;26044;50.864;20.658;2023-04-30T03:56:14;60.92;;;30.10;;
40339;SDS011;26044;50.864;20.658;2023-04-30T03:58:41;62.85;;;32.20;;
40339;SDS011;26044;50.864;20.658;2023-04-30T04:01:08;65.47;;;33.25;;
40339;SDS011;26044;50.864;20.658;2023-04-30T04:03:35;64.30;;;33.70;;
40339;SDS011;26044;50.864;20.658;2023-04-30T04:06:01;63.22;;;32.50;;
40339;SDS011;26044;50.864;20.658;2023-04-30T04:08:30;63.55;;;32.13;;
40339;SDS011;26044;50.864;20.658;2023-04-30T04:10:57;63.65;;;32.55;;
40339;SDS011;26044;50.864;20.658;2023-04-30T04:13:24;64.97;;;32.90;;
40339;SDS011;26044;50.864;20.658;2023-04-30T04:15:51;66.45;;;33.40;;
40339;SDS011;26044;50.864;20.658;2023-04-30T04:18:18;66.50;;;32.63;;
40339;SDS011;26044;50.864;20.658;2023-04-30T04:20:44;76.97;;;33.97;;
40339;SDS011;26044;50.864;20.658;2023-04-30T04:23:11;69.80;;;34.53;;
40339;SDS011;26044;50.864;20.658;2023-04-30T04:25:38;72.00;;;32.92;;
40339;SDS011;26044;50.864;20.658;2023-04-30T04:28:06;72.38;;;33.45;;
40339;SDS011;26044;50.864;20.658;2023-04-30T04:30:33;71.78;;;35.17;;
40339;SDS011;26044;50.864;20.658;2023-04-30T04:33:01;74.05;;;36.85;;
40339;SDS011;26044;50.864;20.658;2023-04-30T04:35:28;76.70;;;38.25;;
40339;SDS011;26044;50.864;20.658;2023-04-30T04:37:56;70.43;;;34.10;;
40339;SDS011;26044;50.864;20.658;2023-04-30T04:40:23;70.47;;;33.38;;
40339;SDS011;26044;50.864;20.658;2023-04-30T04:42:50;68.82;;;32.15;;
40339;SDS011;26044;50.864;20.658;2023-04-30T04:45:17;67.03;;;35.35;;
40339;SDS011;26044;50.864;20.658;2023-04-30T04:47:46;61.65;;;30.55;;
40339;SDS011;26044;50.864;20.658;2023-04-30T04:50:13;56.95;;;27.98;;
40339;SDS011;26044;50.864;20.658;2023-04-30T04:52:43;50.20;;;27.27;;
40339;SDS011;26044;50.864;20.658;2023-04-30T04:55:10;45.97;;;26.98;;
40339;SDS011;26044;50.864;20.658;2023-04-30T04:57:37;39.25;;;23.92;;
40339;SDS011;26044;50.864;20.658;2023-04-30T05:00:04;38.15;;;25.13;;
40339;SDS011;26044;50.864;20.658;2023-04-30T05:02:33;34.15;;;19.42;;
40339;SDS011;26044;50.864;20.658;2023-04-30T05:05:00;38.17;;;24.05;;
40339;SDS011;26044;50.864;20.658;2023-04-30T05:07:27;32.60;;;18.92;;
40339;SDS011;26044;50.864;20.658;2023-04-30T05:09:55;33.00;;;19.00;;
40339;SDS011;26044;50.864;20.658;2023-04-30T05:12:22;29.70;;;17.30;;
40339;SDS011;26044;50.864;20.658;2023-04-30T05:14:49;30.20;;;18.10;;
40339;SDS011;26044;50.864;20.658;2023-04-30T05:17:16;26.48;;;15.27;;
40339;SDS011;26044;50.864;20.658;2023-04-30T05:19:43;28.65;;;17.30;;
40339;SDS011;26044;50.864;20.658;2023-04-30T05:22:10;31.13;;;18.63;;
40339;SDS011;26044;50.864;20.658;2023-04-30T05:24:39;34.40;;;21.33;;
40339;SDS011;26044;50.864;20.658;2023-04-30T05:27:08;35.17;;;20.35;;
40339;SDS011;26044;50.864;20.658;2023-04-30T05:29:38;33.38;;;19.25;;
40339;SDS011;26044;50.864;20.658;2023-04-30T05:32:07;29.45;;;16.10;;
40339;SDS011;26044;50.864;20.658;2023-04-30T05:34:34;30.23;;;18.00;;
40339;SDS011;26044;50.864;20.658;2023-04-30T05:37:06;26.85;;;14.18;;
40339;SDS011;26044;50.864;20.658;2023-04-30T05:39:33;30.33;;;16.60;;
40339;SDS011;26044;50.864;20.658;2023-04-30T05:42:00;24.17;;;12.60;;
40339;SDS011;26044;50.864;20.658;2023-04-30T05:44:27;20.90;;;10.75;;
40339;SDS011;26044;50.864;20.658;2023-04-30T05:46:55;19.40;;;9.13;;
40339;SDS011;26044;50.864;20.658;2023-04-30T05:49:22;17.25;;;7.97;;
40339;SDS011;26044;50.864;20.658;2023-04-30T05:51:54;16.95;;;7.85;;
40339;SDS011;26044;50.864;20.658;2023-04-30T05:54:21;18.45;;;8.10;;
40339;SDS011;26044;50.864;20.658;2023-04-30T05:56:48;18.85;;;8.68;;
40339;SDS011;26044;50.864;20.658;2023-04-30T05:59:15;20.35;;;8.75;;
40339;SDS011;26044;50.864;20.658;2023-04-30T06:01:41;22.80;;;9.95;;
40339;SDS011;26044;50.864;20.658;2023-04-30T06:04:08;20.98;;;10.10;;
40339;SDS011;26044;50.864;20.658;2023-04-30T06:06:36;26.02;;;12.30;;
40339;SDS011;26044;50.864;20.658;2023-04-30T06:09:03;31.83;;;16.45;;
40339;SDS011;26044;50.864;20.658;2023-04-30T06:11:30;32.60;;;15.98;;
40339;SDS011;26044;50.864;20.658;2023-04-30T06:13:57;36.28;;;17.70;;
40339;SDS011;26044;50.864;20.658;2023-04-30T06:16:26;36.47;;;18.48;;
40339;SDS011;26044;50.864;20.658;2023-04-30T06:18:54;39.53;;;20.25;;
40339;SDS011;26044;50.864;20.658;2023-04-30T06:21:21;48.28;;;21.98;;
40339;SDS011;26044;50.864;20.658;2023-04-30T06:23:51;46.33;;;22.27;;
40339;SDS011;26044;50.864;20.658;2023-04-30T06:26:18;44.60;;;23.33;;
40339;SDS011;26044;50.864;20.658;2023-04-30T06:28:45;49.80;;;24.58;;
40339;SDS011;26044;50.864;20.658;2023-04-30T06:31:12;55.85;;;28.35;;
40339;SDS011;26044;50.864;20.658;2023-04-30T06:33:39;52.63;;;26.80;;
40339;SDS011;26044;50.864;20.658;2023-04-30T06:36:05;49.97;;;26.85;;
40339;SDS011;26044;50.864;20.658;2023-04-30T06:38:32;51.00;;;25.85;;
40339;SDS011;26044;50.864;20.658;2023-04-30T06:40:59;46.80;;;26.23;;
40339;SDS011;26044;50.864;20.658;2023-04-30T06:43:26;45.58;;;23.98;;
40339;SDS011;26044;50.864;20.658;2023-04-30T06:45:53;45.90;;;25.55;;
40339;SDS011;26044;50.864;20.658;2023-04-30T06:48:22;49.65;;;26.52;;
40339;SDS011;26044;50.864;20.658;2023-04-30T06:50:52;48.67;;;26.75;;
40339;SDS011;26044;50.864;20.658;2023-04-30T06:54:02;51.80;;;29.15;;
40339;SDS011;26044;50.864;20.658;2023-04-30T06:56:55;50.50;;;27.70;;
40339;SDS011;26044;50.864;20.658;2023-04-30T06:59:40;58.05;;;28.30;;
40339;SDS011;26044;50.864;20.658;2023-04-30T07:02:12;50.72;;;28.33;;
40339;SDS011;26044;50.864;20.658;2023-04-30T07:04:52;58.47;;;30.38;;
40339;SDS011;26044;50.864;20.658;2023-04-30T07:07:41;55.67;;;29.98;;
40339;SDS011;26044;50.864;20.658;2023-04-30T07:10:07;56.47;;;29.15;;
40339;SDS011;26044;50.864;20.658;2023-04-30T07:12:34;60.97;;;31.27;;
40339;SDS011;26044;50.864;20.658;2023-04-30T07:15:01;60.03;;;29.85;;
40339;SDS011;26044;50.864;20.658;2023-04-30T07:17:29;60.17;;;31.58;;
40339;SDS011;26044;50.864;20.658;2023-04-30T07:19:56;56.90;;;29.50;;
40339;SDS011;26044;50.864;20.658;2023-04-30T07:22:29;56.28;;;28.02;;
40339;SDS011;26044;50.864;20.658;2023-04-30T07:24:57;61.25;;;30.83;;
40339;SDS011;26044;50.864;20.658;2023-04-30T07:27:30;52.33;;;27.15;;
40339;SDS011;26044;50.864;20.658;2023-04-30T07:30:11;55.35;;;29.25;;
40339;SDS011;26044;50.864;20.658;2023-04-30T07:32:38;55.47;;;29.00;;
40339;SDS011;26044;50.864;20.658;2023-04-30T07:35:13;49.97;;;26.52;;
40339;SDS011;26044;50.864;20.658;2023-04-30T07:37:46;47.15;;;24.98;;
40339;SDS011;26044;50.864;20.658;2023-04-30T07:40:13;48.08;;;25.50;;
40339;SDS011;26044;50.864;20.658;2023-04-30T07:43:00;47.63;;;24.30;;
40339;SDS011;26044;50.864;20.658;2023-04-30T07:45:27;46.95;;;24.80;;
40339;SDS011;26044;50.864;20.658;2023-04-30T07:48:00;45.28;;;24.83;;
40339;SDS011;26044;50.864;20.658;2023-04-30T07:50:27;43.53;;;24.02;;
40339;SDS011;26044;50.864;20.658;2023-04-30T07:53:05;46.40;;;25.10;;
40339;SDS011;26044;50.864;20.658;2023-04-30T07:55:34;45.47;;;24.05;;
40339;SDS011;26044;50.864;20.658;2023-04-30T07:58:07;46.97;;;25.35;;
40339;SDS011;26044;50.864;20.658;2023-04-30T08:00:41;48.53;;;25.25;;
40339;SDS011;26044;50.864;20.658;2023-04-30T08:03:14;59.83;;;34.78;;
40339;SDS011;26044;50.864;20.658;2023-04-30T08:05:54;63.85;;;33.35;;
40339;SDS011;26044;50.864;20.658;2023-04-30T08:08:21;54.67;;;28.52;;
40339;SDS011;26044;50.864;20.658;2023-04-30T08:10:55;46.95;;;26.15;;
40339;SDS011;26044;50.864;20.658;2023-04-30T08:13:22;44.13;;;23.85;;
40339;SDS011;26044;50.864;20.658;2023-04-30T08:15:48;40.75;;;23.67;;
40339;SDS011;26044;50.864;20.658;2023-04-30T08:18:22;37.90;;;22.52;;
40339;SDS011;26044;50.864;20.658;2023-04-30T08:20:49;40.28;;;22.00;;
40339;SDS011;26044;50.864;20.658;2023-04-30T08:23:15;33.20;;;19.08;;
40339;SDS011;26044;50.864;20.658;2023-04-30T08:25:42;32.72;;;17.35;;
40339;SDS011;26044;50.864;20.658;2023-04-30T08:28:09;32.33;;;17.38;;
40339;SDS011;26044;50.864;20.658;2023-04-30T08:30:36;32.63;;;18.00;;
40339;SDS011;26044;50.864;20.658;2023-04-30T08:33:02;32.10;;;17.17;;
40339;SDS011;26044;50.864;20.658;2023-04-30T08:35:29;31.45;;;16.48;;
40339;SDS011;26044;50.864;20.658;2023-04-30T08:37:56;31.52;;;16.55;;
40339;SDS011;26044;50.864;20.658;2023-04-30T08:40:24;30.90;;;16.92;;
40339;SDS011;26044;50.864;20.658;2023-04-30T08:43:17;29.48;;;15.40;;
40339;SDS011;26044;50.864;20.658;2023-04-30T08:45:44;28.33;;;15.82;;
40339;SDS011;26044;50.864;20.658;2023-04-30T08:48:11;29.75;;;16.70;;
40339;SDS011;26044;50.864;20.658;2023-04-30T08:50:41;30.05;;;14.73;;
40339;SDS011;26044;50.864;20.658;2023-04-30T08:53:08;27.92;;;14.20;;
40339;SDS011;26044;50.864;20.658;2023-04-30T08:55:36;25.85;;;13.32;;
40339;SDS011;26044;50.864;20.658;2023-04-30T08:58:06;29.60;;;13.20;;
40339;SDS011;26044;50.864;20.658;2023-04-30T09:00:35;26.80;;;13.25;;
40339;SDS011;26044;50.864;20.658;2023-04-30T09:03:03;27.27;;;12.85;;
40339;SDS011;26044;50.864;20.658;2023-04-30T09:05:31;26.52;;;12.70;;
40339;SDS011;26044;50.864;20.658;2023-04-30T09:07:58;21.95;;;11.20;;
40339;SDS011;26044;50.864;20.658;2023-04-30T09:10:32;27.33;;;13.43;;
40339;SDS011;26044;50.864;20.658;2023-04-30T09:13:05;23.45;;;11.43;;
40339;SDS011;26044;50.864;20.658;2023-04-30T09:15:34;23.15;;;10.88;;
40339;SDS011;26044;50.864;20.658;2023-04-30T09:20:37;22.13;;;9.27;;
40339;SDS011;26044;50.864;20.658;2023-04-30T09:23:25;21.38;;;8.48;;
40339;SDS011;26044;50.864;20.658;2023-04-30T09:25:51;21.05;;;8.40;;
40339;SDS011;26044;50.864;20.658;2023-04-30T09:28:21;18.63;;;7.53;;
40339;SDS011;26044;50.864;20.658;2023-04-30T09:31:17;15.77;;;6.15;;
40339;SDS011;26044;50.864;20.658;2023-04-30T09:33:45;13.88;;;6.15;;
40339;SDS011;26044;50.864;20.658;2023-04-30T09:36:12;14.32;;;5.53;;
40339;SDS011;26044;50.864;20.658;2023-04-30T09:38:39;16.98;;;5.50;;
40339;SDS011;26044;50.864;20.658;2023-04-30T09:41:06;14.82;;;5.60;;
40339;SDS011;26044;50.864;20.658;2023-04-30T09:43:55;12.23;;;4.25;;
40339;SDS011;26044;50.864;20.658;2023-04-30T09:46:33;15.27;;;4.95;;
40339;SDS011;26044;50.864;20.658;2023-04-30T09:51:31;11.60;;;4.13;;
40339;SDS011;26044;50.864;20.658;2023-04-30T09:53:58;13.38;;;4.50;;
40339;SDS011;26044;50.864;20.658;2023-04-30T09:56:28;13.18;;;4.57;;
40339;SDS011;26044;50.864;20.658;2023-04-30T09:58:57;14.55;;;4.47;;
40339;SDS011;26044;50.864;20.658;2023-04-30T10:01:27;9.40;;;4.28;;
40339;SDS011;26044;50.864;20.658;2023-04-30T10:03:54;12.48;;;4.40;;
40339;SDS011;26044;50.864;20.658;2023-04-30T10:06:23;13.27;;;4.53;;
40339;SDS011;26044;50.864;20.658;2023-04-30T10:08:52;14.63;;;3.97;;
40339;SDS011;26044;50.864;20.658;2023-04-30T10:11:27;11.55;;;4.28;;
40339;SDS011;26044;50.864;20.658;2023-04-30T10:14:02;13.07;;;4.40;;
40339;SDS011;26044;50.864;20.658;2023-04-30T10:19:23;10.05;;;4.38;;
40339;SDS011;26044;50.864;20.658;2023-04-30T10:21:51;10.38;;;3.83;;
40339;SDS011;26044;50.864;20.658;2023-04-30T10:24:19;9.65;;;3.22;;
40339;SDS011;26044;50.864;20.658;2023-04-30T10:26:46;12.38;;;3.45;;
40339;SDS011;26044;50.864;20.658;2023-04-30T10:29:14;12.82;;;3.75;;
40339;SDS011;26044;50.864;20.658;2023-04-30T10:31:47;14.90;;;3.47;;
40339;SDS011;26044;50.864;20.658;2023-04-30T10:37:12;9.35;;;2.92;;
40339;SDS011;26044;50.864;20.658;2023-04-30T10:39:47;7.22;;;2.95;;
40339;SDS011;26044;50.864;20.658;2023-04-30T10:42:16;11.38;;;3.13;;
40339;SDS011;26044;50.864;20.658;2023-04-30T10:44:43;11.02;;;3.25;;
40339;SDS011;26044;50.864;20.658;2023-04-30T10:47:15;11.43;;;2.95;;
40339;SDS011;26044;50.864;20.658;2023-04-30T10:49:45;10.20;;;2.65;;
40339;SDS011;26044;50.864;20.658;2023-04-30T10:52:25;7.68;;;2.67;;
40339;SDS011;26044;50.864;20.658;2023-04-30T10:54:54;8.93;;;2.63;;
40339;SDS011;26044;50.864;20.658;2023-04-30T10:57:24;8.80;;;2.83;;
40339;SDS011;26044;50.864;20.658;2023-04-30T11:02:38;10.05;;;2.80;;
40339;SDS011;26044;50.864;20.658;2023-04-30T11:05:13;6.03;;;2.55;;
40339;SDS011;26044;50.864;20.658;2023-04-30T11:07:50;8.48;;;2.15;;
40339;SDS011;26044;50.864;20.658;2023-04-30T11:10:24;6.75;;;2.42;;
40339;SDS011;26044;50.864;20.658;2023-04-30T11:12:58;9.43;;;2.38;;
40339;SDS011;26044;50.864;20.658;2023-04-30T11:15:33;11.30;;;2.88;;
40339;SDS011;26044;50.864;20.658;2023-04-30T11:18:06;9.68;;;3.08;;
40339;SDS011;26044;50.864;20.658;2023-04-30T11:20:34;14.35;;;3.15;;
40339;SDS011;26044;50.864;20.658;2023-04-30T11:23:13;9.70;;;2.38;;
40339;SDS011;26044;50.864;20.658;2023-04-30T11:26:04;8.18;;;2.13;;
40339;SDS011;26044;50.864;20.658;2023-04-30T11:28:35;8.27;;;2.45;;
40339;SDS011;26044;50.864;20.658;2023-04-30T11:31:03;9.60;;;2.45;;
40339;SDS011;26044;50.864;20.658;2023-04-30T11:33:31;12.95;;;3.33;;
40339;SDS011;26044;50.864;20.658;2023-04-30T11:35:59;9.68;;;2.97;;
40339;SDS011;26044;50.864;20.658;2023-04-30T11:38:34;7.30;;;2.50;;
40339;SDS011;26044;50.864;20.658;2023-04-30T11:41:04;11.15;;;2.53;;
40339;SDS011;26044;50.864;20.658;2023-04-30T11:43:34;10.23;;;2.78;;
40339;SDS011;26044;50.864;20.658;2023-04-30T11:48:50;9.40;;;2.28;;
40339;SDS011;26044;50.864;20.658;2023-04-30T11:51:27;8.10;;;2.85;;
40339;SDS011;26044;50.864;20.658;2023-04-30T11:53:56;9.73;;;2.88;;
40339;SDS011;26044;50.864;20.658;2023-04-30T11:56:23;9.75;;;2.67;;
40339;SDS011;26044;50.864;20.658;2023-04-30T11:58:54;8.15;;;2.65;;
40339;SDS011;26044;50.864;20.658;2023-04-30T12:01:25;8.60;;;2.60;;
40339;SDS011;26044;50.864;20.658;2023-04-30T12:03:57;5.78;;;2.70;;
40339;SDS011;26044;50.864;20.658;2023-04-30T12:06:26;9.48;;;2.75;;
40339;SDS011;26044;50.864;20.658;2023-04-30T12:08:55;12.38;;;2.70;;
40339;SDS011;26044;50.864;20.658;2023-04-30T12:11:27;9.80;;;2.40;;
40339;SDS011;26044;50.864;20.658;2023-04-30T12:13:57;11.38;;;2.70;;
40339;SDS011;26044;50.864;20.658;2023-04-30T12:16:40;8.82;;;2.40;;
40339;SDS011;26044;50.864;20.658;2023-04-30T12:19:11;5.80;;;2.15;;
40339;SDS011;26044;50.864;20.658;2023-04-30T12:21:38;8.80;;;2.63;;
40339;SDS011;26044;50.864;20.658;2023-04-30T12:24:11;10.10;;;3.03;;
40339;SDS011;26044;50.864;20.658;2023-04-30T12:26:42;11.18;;;2.80;;
40339;SDS011;26044;50.864;20.658;2023-04-30T12:29:16;10.85;;;2.67;;
40339;SDS011;26044;50.864;20.658;2023-04-30T12:31:45;10.10;;;2.75;;
40339;SDS011;26044;50.864;20.658;2023-04-30T12:34:18;7.10;;;2.58;;
40339;SDS011;26044;50.864;20.658;2023-04-30T12:36:45;7.68;;;3.00;;
40339;SDS011;26044;50.864;20.658;2023-04-30T12:39:12;9.88;;;2.70;;
40339;SDS011;26044;50.864;20.658;2023-04-30T12:41:46;8.35;;;2.50;;
40339;SDS011;26044;50.864;20.658;2023-04-30T12:46:48;6.97;;;2.47;;
40339;SDS011;26044;50.864;20.658;2023-04-30T12:51:59;5.78;;;1.75;;
40339;SDS011;26044;50.864;20.658;2023-04-30T12:54:30;5.65;;;2.30;;
40339;SDS011;26044;50.864;20.658;2023-04-30T12:59:37;9.50;;;2.40;;
40339;SDS011;26044;50.864;20.658;2023-04-30T13:02:08;6.13;;;2.15;;
40339;SDS011;26044;50.864;20.658;2023-04-30T13:04:38;5.15;;;2.15;;
40339;SDS011;26044;50.864;20.658;2023-04-30T13:07:06;9.38;;;2.40;;
40339;SDS011;26044;50.864;20.658;2023-04-30T13:09:34;8.20;;;2.83;;
40339;SDS011;26044;50.864;20.658;2023-04-30T13:12:02;4.53;;;2.28;;
40339;SDS011;26044;50.864;20.658;2023-04-30T13:14:32;11.82;;;2.67;;
40339;SDS011;26044;50.864;20.658;2023-04-30T13:16:59;12.27;;;2.92;;
40339;SDS011;26044;50.864;20.658;2023-04-30T13:19:27;16.05;;;3.20;;
40339;SDS011;26044;50.864;20.658;2023-04-30T13:21:55;9.50;;;3.10;;
40339;SDS011;26044;50.864;20.658;2023-04-30T13:24:23;7.13;;;2.63;;
40339;SDS011;26044;50.864;20.658;2023-04-30T13:26:50;7.90;;;2.25;;
40339;SDS011;26044;50.864;20.658;2023-04-30T13:29:17;11.18;;;2.90;;
40339;SDS011;26044;50.864;20.658;2023-04-30T13:31:46;10.73;;;2.88;;
40339;SDS011;26044;50.864;20.658;2023-04-30T13:34:15;8.75;;;2.78;;
40339;SDS011;26044;50.864;20.658;2023-04-30T13:36:42;10.68;;;3.05;;
40339;SDS011;26044;50.864;20.658;2023-04-30T13:39:09;8.18;;;2.63;;
40339;SDS011;26044;50.864;20.658;2023-04-30T13:41:36;8.73;;;2.60;;
40339;SDS011;26044;50.864;20.658;2023-04-30T13:44:03;6.18;;;2.33;;
40339;SDS011;26044;50.864;20.658;2023-04-30T13:46:30;7.18;;;2.55;;
40339;SDS011;26044;50.864;20.658;2023-04-30T13:48:57;10.32;;;2.38;;
40339;SDS011;26044;50.864;20.658;2023-04-30T13:51:23;11.20;;;2.40;;
40339;SDS011;26044;50.864;20.658;2023-04-30T13:53:50;10.07;;;2.47;;
40339;SDS011;26044;50.864;20.658;2023-04-30T13:56:18;4.90;;;1.90;;
40339;SDS011;26044;50.864;20.658;2023-04-30T13:58:44;7.63;;;2.03;;
40339;SDS011;26044;50.864;20.658;2023-04-30T14:01:12;9.40;;;2.50;;
40339;SDS011;26044;50.864;20.658;2023-04-30T14:03:39;10.68;;;1.98;;
40339;SDS011;26044;50.864;20.658;2023-04-30T14:06:07;8.20;;;2.22;;
40339;SDS011;26044;50.864;20.658;2023-04-30T14:08:35;7.25;;;2.10;;
40339;SDS011;26044;50.864;20.658;2023-04-30T14:11:02;8.90;;;2.45;;
40339;SDS011;26044;50.864;20.658;2023-04-30T14:13:29;10.98;;;2.28;;
40339;SDS011;26044;50.864;20.658;2023-04-30T14:15:56;8.20;;;2.03;;
40339;SDS011;26044;50.864;20.658;2023-04-30T14:18:23;4.75;;;1.90;;
40339;SDS011;26044;50.864;20.658;2023-04-30T14:20:50;6.57;;;1.80;;
40339;SDS011;26044;50.864;20.658;2023-04-30T14:23:17;5.60;;;2.00;;
40339;SDS011;26044;50.864;20.658;2023-04-30T14:25:44;6.68;;;1.95;;
40339;SDS011;26044;50.864;20.658;2023-04-30T14:28:11;7.00;;;2.15;;
40339;SDS011;26044;50.864;20.658;2023-04-30T14:30:38;4.20;;;1.75;;
40339;SDS011;26044;50.864;20.658;2023-04-30T14:33:05;9.43;;;1.98;;
40339;SDS011;26044;50.864;20.658;2023-04-30T14:35:32;7.07;;;2.35;;
40339;SDS011;26044;50.864;20.658;2023-04-30T14:37:59;7.78;;;2.03;;
40339;SDS011;26044;50.864;20.658;2023-04-30T14:40:26;6.82;;;2.00;;
40339;SDS011;26044;50.864;20.658;2023-04-30T14:42:52;7.57;;;2.30;;
40339;SDS011;26044;50.864;20.658;2023-04-30T14:45:19;4.80;;;1.67;;
40339;SDS011;26044;50.864;20.658;2023-04-30T14:47:47;6.45;;;2.13;;
40339;SDS011;26044;50.864;20.658;2023-04-30T14:52:43;7.65;;;2.72;;
40339;SDS011;26044;50.864;20.658;2023-04-30T14:55:10;7.63;;;2.17;;
40339;SDS011;26044;50.864;20.658;2023-04-30T14:57:37;5.53;;;1.92;;
40339;SDS011;26044;50.864;20.658;2023-04-30T15:00:03;8.00;;;1.75;;
40339;SDS011;26044;50.864;20.658;2023-04-30T15:02:32;5.82;;;1.95;;
40339;SDS011;26044;50.864;20.658;2023-04-30T15:04:59;6.93;;;1.83;;
40339;SDS011;26044;50.864;20.658;2023-04-30T15:07:26;5.70;;;1.98;;
40339;SDS011;26044;50.864;20.658;2023-04-30T15:09:53;8.57;;;3.03;;
40339;SDS011;26044;50.864;20.658;2023-04-30T15:12:20;7.93;;;2.35;;